Time;durP1;ratioP1;P1;durP2;ratioP2;P2;SDS_P1;SDS_P2;PMS_P1;PMS_P2;Temp;Humidity;BMP_temperature;BMP_pressure;BME280_temperature;BME280_humidity;BME280_pressure;Samples;Min_cycle;Max_cycle;Signal;HPM_P1;HPM_P2
2024/01/29 00:01:24;;;;;;;8.30;4.65;;;5.20;99.90;;;;;;7371017;19;20113;-74
2024/01/29 00:03:51;;;;;;;7.88;4.40;;;5.20;99.90;;;;;;7373054;19;20019;-73
2024/01/29 00:06:18;;;;;;;7.03;5.20;;;5.10;99.90;;;;;;7376506;19;20010;-73
2024/01/29 00:08:45;;;;;;;7.18;4.78;;;5.00;99.90;;;;;;7370294;19;20014;-73
2024/01/29 00:11:11;;;;;;;8.25;4.55;;;5.00;99.90;;;;;;7374083;19;20022;-73
2024/01/29 00:13:38;;;;;;;7.75;4.70;;;5.00;99.90;;;;;;7373210;19;20074;-72
2024/01/29 00:16:05;;;;;;;7.63;4.82;;;4.90;99.90;;;;;;7373315;19;20030;-71
2024/01/29 00:18:31;;;;;;;7.50;4.60;;;4.80;99.90;;;;;;7373276;19;20022;-71
2024/01/29 00:20:57;;;;;;;6.72;4.32;;;4.80;99.90;;;;;;7372075;19;20074;-71
2024/01/29 00:23:24;;;;;;;7.35;4.78;;;4.70;99.90;;;;;;7375145;19;20056;-71
2024/01/29 00:25:50;;;;;;;8.07;4.88;;;4.70;99.90;;;;;;7373893;19;20621;-72
2024/01/29 00:28:16;;;;;;;8.10;4.55;;;4.70;99.90;;;;;;7375612;19;20496;-71
2024/01/29 00:30:42;;;;;;;8.15;4.50;;;4.70;99.90;;;;;;7374478;19;20041;-72
2024/01/29 00:33:08;;;;;;;7.80;4.70;;;4.60;99.90;;;;;;7374840;19;20111;-71
2024/01/29 00:35:36;;;;;;;6.22;4.60;;;4.60;99.90;;;;;;7374619;19;20031;-71
2024/01/29 00:38:02;;;;;;;5.93;3.63;;;4.60;99.90;;;;;;7371849;19;20014;-71
2024/01/29 00:40:30;;;;;;;6.90;4.30;;;4.60;99.90;;;;;;7372246;19;20555;-71
2024/01/29 00:42:56;;;;;;;8.60;5.07;;;4.60;99.90;;;;;;7369357;19;20768;-72
2024/01/29 00:45:22;;;;;;;6.85;4.32;;;4.60;99.90;;;;;;7371827;19;20018;-71
2024/01/29 00:47:48;;;;;;;7.05;4.63;;;4.60;99.90;;;;;;7372750;19;20045;-71
2024/01/29 00:50:14;;;;;;;10.40;4.55;;;4.70;99.90;;;;;;7372802;19;20038;-70
2024/01/29 00:52:41;;;;;;;10.25;5.00;;;4.60;99.90;;;;;;7372314;19;20018;-70
2024/01/29 00:55:07;;;;;;;6.57;4.25;;;4.70;99.90;;;;;;7373181;19;20117;-72
2024/01/29 00:57:34;;;;;;;5.63;4.05;;;4.70;99.90;;;;;;7373006;19;20022;-70
2024/01/29 01:00:00;;;;;;;9.60;4.10;;;4.70;99.90;;;;;;7372046;19;20584;-71
2024/01/29 01:02:26;;;;;;;8.02;4.85;;;4.70;99.90;;;;;;7369709;19;20010;-71
2024/01/29 01:04:52;;;;;;;8.40;4.53;;;4.70;99.90;;;;;;7373934;19;20022;-71
2024/01/29 01:07:19;;;;;;;6.72;4.63;;;4.70;99.90;;;;;;7373057;19;20019;-71
2024/01/29 01:09:46;;;;;;;7.05;4.63;;;4.70;99.90;;;;;;7371737;19;20825;-72
2024/01/29 01:12:13;;;;;;;7.20;4.75;;;4.70;99.90;;;;;;7366946;19;20085;-72
2024/01/29 01:14:40;;;;;;;6.32;4.20;;;4.70;99.90;;;;;;7371794;19;21145;-73
2024/01/29 01:17:08;;;;;;;7.90;4.88;;;4.60;99.90;;;;;;7371719;19;20021;-73
2024/01/29 01:19:37;;;;;;;6.20;4.43;;;4.70;99.90;;;;;;7371820;19;20371;-72
2024/01/29 01:22:05;;;;;;;7.63;5.10;;;4.70;99.90;;;;;;7369586;19;20543;-73
2024/01/29 01:24:32;;;;;;;7.25;4.40;;;4.70;99.90;;;;;;7367144;19;20057;-74
2024/01/29 01:26:59;;;;;;;6.68;4.60;;;4.60;99.90;;;;;;7369499;19;20652;-73
2024/01/29 01:29:26;;;;;;;5.35;4.20;;;4.60;99.90;;;;;;7365636;19;20369;-73
2024/01/29 01:31:53;;;;;;;6.97;4.30;;;4.50;99.90;;;;;;7371621;19;20019;-72
2024/01/29 01:34:20;;;;;;;8.00;4.88;;;4.50;99.90;;;;;;7372367;19;20101;-72
2024/01/29 01:36:46;;;;;;;6.88;4.95;;;4.40;99.90;;;;;;7368078;19;20798;-73
2024/01/29 01:39:14;;;;;;;7.40;4.50;;;4.30;99.90;;;;;;7369125;19;20389;-73
2024/01/29 01:41:49;;;;;;;7.57;4.88;;;4.20;99.90;;;;;;7373698;19;20042;-73
2024/01/29 01:44:16;;;;;;;7.03;4.57;;;4.10;99.90;;;;;;7372679;19;20081;-72
2024/01/29 01:46:44;;;;;;;9.35;4.95;;;4.10;99.90;;;;;;7371151;19;20035;-72
2024/01/29 01:49:11;;;;;;;6.60;4.75;;;4.10;99.90;;;;;;7371622;19;20575;-72
2024/01/29 01:51:39;;;;;;;8.85;5.40;;;4.00;99.90;;;;;;7372204;19;20025;-72
2024/01/29 01:54:08;;;;;;;6.45;4.35;;;3.90;99.90;;;;;;7372579;19;21214;-72
2024/01/29 01:56:38;;;;;;;6.97;4.65;;;3.90;99.90;;;;;;7371630;19;20018;-72
2024/01/29 01:59:07;;;;;;;7.93;4.88;;;3.80;99.90;;;;;;7369849;19;20019;-72
2024/01/29 02:01:34;;;;;;;7.43;4.78;;;3.70;99.90;;;;;;7367660;19;20069;-72
2024/01/29 02:04:01;;;;;;;9.30;5.07;;;3.70;99.90;;;;;;7370156;19;20074;-72
2024/01/29 02:06:28;;;;;;;8.93;5.38;;;3.50;99.90;;;;;;7377778;19;20110;-72
2024/01/29 02:08:55;;;;;;;6.97;4.93;;;3.40;99.90;;;;;;7373235;19;20085;-72
2024/01/29 02:11:24;;;;;;;8.45;4.88;;;3.40;99.90;;;;;;7377929;19;20032;-72
2024/01/29 02:13:51;;;;;;;9.38;5.20;;;3.30;99.90;;;;;;7372309;19;20114;-72
2024/01/29 02:16:18;;;;;;;7.25;4.68;;;3.20;99.90;;;;;;7377281;19;20049;-72
2024/01/29 02:18:45;;;;;;;7.75;5.10;;;3.20;99.90;;;;;;7374962;19;20010;-72
2024/01/29 02:21:12;;;;;;;8.73;5.05;;;3.20;99.90;;;;;;7375673;19;20026;-72
2024/01/29 02:23:42;;;;;;;6.93;4.45;;;3.10;99.90;;;;;;7373331;19;20018;-72
2024/01/29 02:26:08;;;;;;;7.90;4.97;;;3.10;99.90;;;;;;7377523;19;20483;-72
2024/01/29 02:28:34;;;;;;;8.25;5.15;;;3.10;99.90;;;;;;7375405;19;20019;-72
2024/01/29 02:31:00;;;;;;;7.28;4.85;;;3.10;99.90;;;;;;7375230;19;20428;-71
2024/01/29 02:33:27;;;;;;;7.13;4.82;;;3.20;99.90;;;;;;7374588;19;20022;-71
2024/01/29 02:35:53;;;;;;;7.47;4.72;;;3.40;99.90;;;;;;7371731;19;20033;-72
2024/01/29 02:38:19;;;;;;;7.80;4.60;;;3.40;99.90;;;;;;7380222;19;20023;-71
2024/01/29 02:40:46;;;;;;;8.93;5.15;;;3.40;99.90;;;;;;7377493;19;20050;-72
2024/01/29 02:43:13;;;;;;;8.18;5.00;;;3.40;99.90;;;;;;7373988;19;20022;-71
2024/01/29 02:45:39;;;;;;;7.60;4.82;;;3.40;99.90;;;;;;7375989;19;20781;-71
2024/01/29 02:48:06;;;;;;;8.82;5.03;;;3.40;99.90;;;;;;7369729;19;20383;-72
2024/01/29 02:50:32;;;;;;;7.57;4.57;;;3.50;99.90;;;;;;7376461;19;20018;-72
2024/01/29 02:52:59;;;;;;;6.18;4.70;;;3.50;99.90;;;;;;7375701;19;20014;-71
2024/01/29 02:55:25;;;;;;;8.98;4.97;;;3.60;99.90;;;;;;7374464;19;20026;-72
2024/01/29 02:57:54;;;;;;;7.47;4.85;;;3.60;99.90;;;;;;7371902;19;20369;-72
2024/01/29 03:00:20;;;;;;;7.22;5.28;;;3.50;99.90;;;;;;7377092;19;20787;-72
2024/01/29 03:02:46;;;;;;;9.57;5.40;;;3.50;99.90;;;;;;7376981;19;20018;-73
2024/01/29 03:05:16;;;;;;;6.97;4.93;;;3.40;99.90;;;;;;7372029;19;20077;-73
2024/01/29 03:07:44;;;;;;;7.47;4.68;;;3.30;99.90;;;;;;7373985;19;20019;-72
2024/01/29 03:10:11;;;;;;;10.88;5.15;;;3.30;99.90;;;;;;7374898;19;20026;-73
2024/01/29 03:12:37;;;;;;;8.68;5.45;;;3.10;99.90;;;;;;7378413;19;20608;-73
2024/01/29 03:15:03;;;;;;;6.80;4.95;;;3.10;99.90;;;;;;7373853;19;20022;-72
2024/01/29 03:17:30;;;;;;;7.70;5.63;;;3.00;99.90;;;;;;7366203;19;20029;-72
2024/01/29 03:19:56;;;;;;;8.10;4.90;;;3.00;99.90;;;;;;7371989;19;20545;-73
2024/01/29 03:22:23;;;;;;;7.43;5.03;;;2.90;99.90;;;;;;7370804;19;20027;-72
2024/01/29 03:24:52;;;;;;;7.15;5.43;;;2.80;99.90;;;;;;7374406;19;20018;-72
2024/01/29 03:27:19;;;;;;;7.63;5.25;;;2.70;99.90;;;;;;7374552;19;20024;-72
2024/01/29 03:29:46;;;;;;;7.07;5.07;;;2.70;99.90;;;;;;7368337;19;20022;-71
2024/01/29 03:32:13;;;;;;;8.98;5.55;;;2.60;99.90;;;;;;7373372;19;20515;-71
2024/01/29 03:34:41;;;;;;;8.40;5.20;;;2.70;99.90;;;;;;7371107;19;20026;-71
2024/01/29 03:37:09;;;;;;;7.07;5.57;;;2.80;99.90;;;;;;7377733;19;20086;-71
2024/01/29 03:39:37;;;;;;;7.97;5.00;;;2.80;99.90;;;;;;7376656;19;20413;-72
2024/01/29 03:42:04;;;;;;;8.63;6.18;;;2.90;99.90;;;;;;7375143;19;20040;-72
2024/01/29 03:44:31;;;;;;;8.80;5.40;;;3.00;99.90;;;;;;7372488;19;20033;-72
2024/01/29 03:46:58;;;;;;;6.75;4.93;;;2.90;99.90;;;;;;7376452;19;20097;-72
2024/01/29 03:49:25;;;;;;;9.02;5.68;;;2.90;99.90;;;;;;7375073;19;20070;-72
2024/01/29 03:51:52;;;;;;;10.07;5.32;;;3.00;99.90;;;;;;7371755;19;20023;-71
2024/01/29 03:54:19;;;;;;;7.95;5.75;;;3.00;99.90;;;;;;7370939;19;20618;-71
2024/01/29 03:56:46;;;;;;;6.88;5.45;;;2.90;99.90;;;;;;7376149;19;20062;-70
2024/01/29 03:59:16;;;;;;;9.45;5.90;;;3.00;99.90;;;;;;7373111;19;20014;-72
2024/01/29 04:01:44;;;;;;;10.93;6.45;;;3.00;99.90;;;;;;7375423;19;20106;-72
2024/01/29 04:04:11;;;;;;;8.02;5.47;;;2.90;99.90;;;;;;7370951;19;20105;-71
2024/01/29 04:06:39;;;;;;;7.43;5.00;;;2.90;99.90;;;;;;7377061;19;20022;-71
2024/01/29 04:09:09;;;;;;;7.78;5.20;;;2.90;99.90;;;;;;7373023;19;20027;-71
2024/01/29 04:11:36;;;;;;;7.82;6.00;;;2.80;99.90;;;;;;7372502;19;20082;-71
2024/01/29 04:14:03;;;;;;;9.75;6.13;;;2.90;99.90;;;;;;7374528;19;20380;-72
2024/01/29 04:16:30;;;;;;;8.20;5.65;;;3.00;99.90;;;;;;7373642;19;20037;-73
2024/01/29 04:18:57;;;;;;;9.30;5.18;;;3.00;99.90;;;;;;7371382;19;20022;-72
2024/01/29 04:21:23;;;;;;;7.55;5.00;;;3.00;99.90;;;;;;7375370;19;20024;-72
2024/01/29 04:23:50;;;;;;;9.15;5.50;;;3.00;99.90;;;;;;7367919;19;20090;-72
2024/01/29 04:26:16;;;;;;;8.60;5.65;;;3.00;99.90;;;;;;7368775;19;20153;-72
2024/01/29 04:28:42;;;;;;;7.85;5.40;;;2.90;99.90;;;;;;7367606;19;20018;-71
2024/01/29 04:31:08;;;;;;;9.73;6.50;;;2.80;99.90;;;;;;7371218;19;20793;-71
2024/01/29 04:33:35;;;;;;;8.48;6.28;;;2.70;99.90;;;;;;7371507;19;20078;-71
2024/01/29 04:36:01;;;;;;;8.27;5.97;;;2.60;99.90;;;;;;7371775;19;20015;-71
2024/01/29 04:38:27;;;;;;;9.48;6.35;;;2.60;99.90;;;;;;7372806;19;20100;-72
2024/01/29 04:40:53;;;;;;;8.27;6.45;;;2.60;99.90;;;;;;7371188;19;20668;-73
2024/01/29 04:43:19;;;;;;;10.30;5.68;;;2.50;99.90;;;;;;7371078;19;20479;-72
2024/01/29 04:45:46;;;;;;;9.38;5.90;;;2.60;99.90;;;;;;7368468;19;20022;-72
2024/01/29 04:48:16;;;;;;;7.78;5.95;;;2.70;99.90;;;;;;7373305;19;20741;-72
2024/01/29 04:50:42;;;;;;;9.32;6.07;;;2.70;99.90;;;;;;7373399;19;20022;-72
2024/01/29 04:53:09;;;;;;;10.85;6.03;;;2.70;99.90;;;;;;7372646;19;20032;-72
2024/01/29 04:55:35;;;;;;;10.30;6.60;;;2.80;99.90;;;;;;7370114;19;20496;-73
2024/01/29 04:58:01;;;;;;;7.38;5.53;;;2.80;99.90;;;;;;7368756;19;20451;-73
2024/01/29 05:00:28;;;;;;;9.38;6.47;;;2.70;99.90;;;;;;7371502;19;20033;-72
2024/01/29 05:02:54;;;;;;;8.95;6.63;;;2.70;99.90;;;;;;7371816;19;20098;-72
2024/01/29 05:05:20;;;;;;;8.45;6.32;;;2.60;99.90;;;;;;7369667;19;20019;-73
2024/01/29 05:07:46;;;;;;;8.57;6.22;;;2.60;99.90;;;;;;7372455;19;20641;-72
2024/01/29 05:10:13;;;;;;;6.90;5.93;;;2.60;99.90;;;;;;7374131;19;20119;-73
2024/01/29 05:12:40;;;;;;;8.80;5.50;;;2.50;99.90;;;;;;7376225;19;20544;-73
2024/01/29 05:15:07;;;;;;;6.82;5.97;;;2.50;99.90;;;;;;7372046;19;20038;-72
2024/01/29 05:17:34;;;;;;;8.45;6.38;;;2.50;99.90;;;;;;7373359;19;20035;-72
2024/01/29 05:20:02;;;;;;;9.05;6.47;;;2.50;99.90;;;;;;7372654;19;20030;-72
2024/01/29 05:22:28;;;;;;;8.20;6.15;;;2.50;99.90;;;;;;7370376;19;20515;-73
2024/01/29 05:24:54;;;;;;;7.97;6.03;;;2.60;99.90;;;;;;7370322;19;20015;-72
2024/01/29 05:27:20;;;;;;;8.05;5.78;;;2.50;99.90;;;;;;7374355;19;20026;-72
2024/01/29 05:29:53;;;;;;;9.27;6.00;;;2.60;99.90;;;;;;7371434;19;20093;-72
2024/01/29 05:32:19;;;;;;;8.02;5.82;;;2.70;99.90;;;;;;7368955;19;20391;-73
2024/01/29 05:34:45;;;;;;;8.27;5.75;;;2.70;99.90;;;;;;7367625;19;20023;-74
2024/01/29 05:37:12;;;;;;;9.55;6.80;;;2.80;99.90;;;;;;7371644;19;20044;-73
2024/01/29 05:39:38;;;;;;;8.57;6.43;;;2.90;99.90;;;;;;7372731;19;20018;-73
2024/01/29 05:42:04;;;;;;;10.02;6.35;;;2.90;99.90;;;;;;7370498;19;20010;-73
2024/01/29 05:44:31;;;;;;;9.52;6.75;;;2.90;99.90;;;;;;7371874;19;20017;-73
2024/01/29 05:46:57;;;;;;;7.32;6.03;;;2.90;99.90;;;;;;7369686;19;20029;-72
2024/01/29 05:49:24;;;;;;;9.88;6.38;;;2.90;99.90;;;;;;7368803;19;20014;-73
2024/01/29 05:51:50;;;;;;;8.15;6.25;;;2.90;99.90;;;;;;7367991;19;20022;-73
2024/01/29 05:54:16;;;;;;;8.65;6.43;;;2.80;99.90;;;;;;7375000;19;20491;-73
2024/01/29 05:56:45;;;;;;;8.38;6.82;;;2.80;99.90;;;;;;7371000;19;20026;-73
2024/01/29 05:59:11;;;;;;;10.23;6.35;;;2.80;99.90;;;;;;7370213;19;20795;-73
2024/01/29 06:01:37;;;;;;;9.20;6.57;;;2.70;99.90;;;;;;7370683;19;20029;-73
2024/01/29 06:04:03;;;;;;;8.98;6.78;;;2.70;99.90;;;;;;7371623;19;20492;-71
2024/01/29 06:06:30;;;;;;;8.48;6.70;;;2.70;99.90;;;;;;7370765;19;20487;-71
2024/01/29 06:08:56;;;;;;;10.80;7.30;;;2.60;99.90;;;;;;7365778;19;20029;-71
2024/01/29 06:11:22;;;;;;;9.15;6.13;;;2.60;99.90;;;;;;7372324;19;20027;-72
2024/01/29 06:13:49;;;;;;;8.60;6.50;;;2.60;99.90;;;;;;7368100;19;20057;-72
2024/01/29 06:16:22;;;;;;;9.35;6.75;;;2.50;99.90;;;;;;7370066;19;20015;-73
2024/01/29 06:18:48;;;;;;;14.38;8.38;;;2.50;99.90;;;;;;7372210;19;20132;-67
2024/01/29 06:21:15;;;;;;;9.20;7.50;;;2.60;99.90;;;;;;7374362;19;20033;-66
2024/01/29 06:23:42;;;;;;;9.02;6.60;;;2.60;99.90;;;;;;7371545;19;20082;-67
2024/01/29 06:26:09;;;;;;;10.23;7.28;;;2.50;99.90;;;;;;7367349;19;20097;-67
2024/01/29 06:28:36;;;;;;;8.50;7.40;;;2.50;99.90;;;;;;7368602;19;20074;-67
2024/01/29 06:31:04;;;;;;;8.27;6.85;;;2.50;99.90;;;;;;7369597;19;20037;-67
2024/01/29 06:33:30;;;;;;;8.35;7.07;;;2.50;99.90;;;;;;7368262;19;20021;-66
2024/01/29 06:35:59;;;;;;;10.35;7.22;;;2.50;99.90;;;;;;7367440;19;20018;-66
2024/01/29 06:38:26;;;;;;;8.32;6.82;;;2.60;99.90;;;;;;7373642;19;20018;-65
2024/01/29 06:40:54;;;;;;;9.98;7.35;;;2.60;99.90;;;;;;7368538;19;20101;-66
2024/01/29 06:43:21;;;;;;;8.82;6.97;;;2.60;99.90;;;;;;7372800;19;20033;-66
2024/01/29 06:45:51;;;;;;;8.60;7.20;;;2.60;99.90;;;;;;7367588;19;20015;-66
2024/01/29 06:48:18;;;;;;;8.40;7.43;;;2.60;99.90;;;;;;7372870;19;20030;-67
2024/01/29 06:50:45;;;;;;;8.40;7.07;;;2.60;99.90;;;;;;7370926;19;20636;-66
2024/01/29 06:53:12;;;;;;;11.43;7.05;;;2.60;99.90;;;;;;7376062;19;20101;-66
2024/01/29 06:55:39;;;;;;;11.23;7.45;;;2.60;99.90;;;;;;7376004;19;20086;-65
2024/01/29 06:58:07;;;;;;;10.27;7.40;;;2.70;99.90;;;;;;7376563;19;20120;-66
2024/01/29 07:00:34;;;;;;;9.85;7.30;;;2.70;99.90;;;;;;7375840;19;20050;-66
2024/01/29 07:03:01;;;;;;;10.52;7.38;;;2.80;99.90;;;;;;7377706;19;20022;-66
2024/01/29 07:05:27;;;;;;;10.18;7.70;;;2.80;99.90;;;;;;7378083;19;20101;-67
2024/01/29 07:07:54;;;;;;;8.93;7.70;;;2.80;99.90;;;;;;7374035;19;20032;-67
2024/01/29 07:10:21;;;;;;;10.00;8.07;;;2.90;99.90;;;;;;7375129;19;20094;-64
2024/01/29 07:12:48;;;;;;;40.45;29.00;;;3.00;99.90;;;;;;7377656;19;20371;-67
2024/01/29 07:15:18;;;;;;;98.60;71.20;;;3.10;99.90;;;;;;7375405;19;20022;-68
2024/01/29 07:17:45;;;;;;;26.20;19.10;;;3.30;99.90;;;;;;7377718;19;20509;-69
2024/01/29 07:20:12;;;;;;;12.52;8.38;;;3.40;99.90;;;;;;7372736;19;20015;-69
2024/01/29 07:22:42;;;;;;;9.55;7.18;;;3.40;99.90;;;;;;7375601;19;20018;-64
2024/01/29 07:25:08;;;;;;;61.08;44.55;;;3.40;99.90;;;;;;7375217;19;20389;-69
2024/01/29 07:27:35;;;;;;;21.48;16.15;;;3.30;99.90;;;;;;7376092;19;20018;-70
2024/01/29 07:30:01;;;;;;;16.92;12.45;;;3.40;99.90;;;;;;7376363;19;20022;-70
2024/01/29 07:32:31;;;;;;;15.18;10.02;;;3.40;99.90;;;;;;7339885;19;20022;-70
2024/01/29 07:35:01;;;;;;;9.95;7.93;;;3.40;99.90;;;;;;7367462;19;20039;-67
2024/01/29 07:37:28;;;;;;;10.65;8.00;;;3.50;99.90;;;;;;7378289;19;20018;-66
2024/01/29 07:39:54;;;;;;;10.68;7.75;;;3.50;99.90;;;;;;7377057;19;20019;-64
2024/01/29 07:42:20;;;;;;;11.15;8.00;;;3.50;99.90;;;;;;7375250;19;20967;-64
2024/01/29 07:44:48;;;;;;;8.85;7.20;;;3.60;99.90;;;;;;7376935;19;20018;-64
2024/01/29 07:47:14;;;;;;;10.25;8.10;;;3.60;99.90;;;;;;7376071;19;20106;-64
2024/01/29 07:49:41;;;;;;;10.40;7.10;;;3.60;99.90;;;;;;7374640;19;20090;-61
2024/01/29 07:52:08;;;;;;;10.45;8.45;;;3.60;99.90;;;;;;7377714;19;20031;-65
2024/01/29 07:54:35;;;;;;;11.43;8.23;;;3.70;99.90;;;;;;7373011;19;20062;-65
2024/01/29 07:57:03;;;;;;;12.20;7.90;;;3.70;99.90;;;;;;7373278;19;20014;-65
2024/01/29 07:59:32;;;;;;;10.27;7.90;;;3.80;99.90;;;;;;7372131;19;20019;-65
2024/01/29 08:01:58;;;;;;;11.13;8.23;;;3.90;99.90;;;;;;7368197;19;20022;-65
2024/01/29 08:04:24;;;;;;;12.15;8.18;;;3.90;99.90;;;;;;7374723;19;20838;-63
2024/01/29 08:06:51;;;;;;;10.18;7.35;;;4.00;99.90;;;;;;7370358;19;20033;-65
2024/01/29 08:09:18;;;;;;;10.07;8.18;;;4.00;99.90;;;;;;7375454;19;20755;-65
2024/01/29 08:11:44;;;;;;;9.52;8.05;;;4.10;99.90;;;;;;7371445;19;20774;-64
2024/01/29 08:14:11;;;;;;;10.40;7.65;;;4.20;99.90;;;;;;7370609;19;20014;-65
2024/01/29 08:16:37;;;;;;;11.95;8.32;;;4.30;99.90;;;;;;7374896;19;20452;-65
2024/01/29 08:19:04;;;;;;;9.10;7.00;;;4.40;99.90;;;;;;7370799;19;20018;-66
2024/01/29 08:21:30;;;;;;;10.80;7.53;;;4.50;99.90;;;;;;7379071;19;20102;-65
2024/01/29 08:23:57;;;;;;;12.63;7.85;;;4.60;99.90;;;;;;7371499;19;20014;-64
2024/01/29 08:26:24;;;;;;;8.85;7.15;;;4.70;99.90;;;;;;7373641;19;20011;-65
2024/01/29 08:28:51;;;;;;;8.77;6.95;;;4.80;99.90;;;;;;7361199;19;20125;-65
2024/01/29 08:31:18;;;;;;;8.50;7.35;;;4.90;99.90;;;;;;7365704;19;20022;-65
2024/01/29 08:33:44;;;;;;;9.07;7.32;;;5.10;99.90;;;;;;7371029;19;20032;-64
2024/01/29 08:36:10;;;;;;;10.55;7.53;;;5.20;99.90;;;;;;7372122;19;20014;-65
2024/01/29 08:38:37;;;;;;;9.32;7.20;;;5.40;99.90;;;;;;7372319;19;20070;-64
2024/01/29 08:41:03;;;;;;;10.80;7.88;;;5.40;99.90;;;;;;7374373;19;20710;-65
2024/01/29 08:43:29;;;;;;;10.13;7.47;;;5.50;99.90;;;;;;7375973;19;20029;-64
2024/01/29 08:45:56;;;;;;;10.68;7.95;;;5.60;99.90;;;;;;7372473;19;20019;-64
2024/01/29 08:48:22;;;;;;;9.00;7.03;;;5.70;99.90;;;;;;7374497;19;20018;-65
2024/01/29 08:50:48;;;;;;;9.23;7.53;;;6.00;99.90;;;;;;7375079;19;20027;-65
2024/01/29 08:53:15;;;;;;;10.20;8.20;;;6.20;99.90;;;;;;7378952;19;20038;-65
2024/01/29 08:55:41;;;;;;;10.70;7.60;;;6.40;99.90;;;;;;7377128;19;20014;-66
2024/01/29 08:58:07;;;;;;;9.98;6.90;;;6.50;99.90;;;;;;7369319;19;20023;-67
2024/01/29 09:00:33;;;;;;;10.65;8.02;;;6.60;99.90;;;;;;7370674;19;20018;-66
2024/01/29 09:03:00;;;;;;;11.23;7.15;;;6.70;99.90;;;;;;7375586;19;20014;-64
2024/01/29 09:05:26;;;;;;;10.15;8.88;;;6.70;99.90;;;;;;7374273;19;20015;-65
2024/01/29 09:07:52;;;;;;;9.15;7.25;;;6.80;99.90;;;;;;7371947;19;20077;-66
2024/01/29 09:10:19;;;;;;;11.43;7.72;;;6.70;99.90;;;;;;7374784;19;20031;-66
2024/01/29 09:12:45;;;;;;;11.60;7.90;;;6.80;99.90;;;;;;7376535;19;20090;-66
2024/01/29 09:15:11;;;;;;;11.48;8.00;;;7.00;99.90;;;;;;7372048;19;20023;-66
2024/01/29 09:17:38;;;;;;;9.15;7.10;;;7.10;99.90;;;;;;7371032;19;20033;-66
2024/01/29 09:20:06;;;;;;;10.38;7.63;;;7.30;99.90;;;;;;7371756;19;20018;-65
2024/01/29 09:22:33;;;;;;;10.32;7.35;;;7.60;99.90;;;;;;7373521;19;20054;-63
2024/01/29 09:24:59;;;;;;;11.18;8.23;;;8.00;99.90;;;;;;7372905;19;20062;-66
2024/01/29 09:27:26;;;;;;;9.98;7.82;;;8.40;99.90;;;;;;7371079;19;20383;-67
2024/01/29 09:29:52;;;;;;;10.30;7.88;;;8.70;99.90;;;;;;7370966;19;20523;-67
2024/01/29 09:32:19;;;;;;;10.75;8.00;;;8.70;99.90;;;;;;7373598;19;20043;-68
2024/01/29 09:34:46;;;;;;;9.75;7.50;;;8.80;99.90;;;;;;7370696;19;20102;-64
2024/01/29 09:37:18;;;;;;;12.95;8.68;;;8.80;99.90;;;;;;7372311;19;20015;-67
2024/01/29 09:39:45;;;;;;;9.57;8.52;;;9.30;99.90;;;;;;7370523;19;20023;-66
2024/01/29 09:42:19;;;;;;;10.05;7.82;;;9.80;99.90;;;;;;7372208;19;20025;-67
2024/01/29 09:44:47;;;;;;;10.23;7.95;;;10.30;99.90;;;;;;7375167;19;20654;-66
2024/01/29 09:47:14;;;;;;;10.25;7.88;;;10.90;99.90;;;;;;7373055;19;20787;-67
2024/01/29 09:49:42;;;;;;;8.90;7.97;;;11.30;99.90;;;;;;7371305;19;20776;-66
2024/01/29 09:52:14;;;;;;;11.40;7.75;;;11.50;99.90;;;;;;7372687;19;20896;-64
2024/01/29 09:54:41;;;;;;;11.57;7.82;;;11.50;99.90;;;;;;7370828;19;20029;-65
2024/01/29 09:57:12;;;;;;;8.38;6.72;;;11.70;99.90;;;;;;7371192;19;21004;-64
2024/01/29 09:59:42;;;;;;;7.70;6.78;;;11.70;99.90;;;;;;7370760;19;20054;-67
2024/01/29 10:02:09;;;;;;;9.48;7.68;;;11.70;99.90;;;;;;7378665;19;20018;-66
2024/01/29 10:04:35;;;;;;;9.77;8.52;;;11.40;99.90;;;;;;7372472;19;20556;-66
2024/01/29 10:07:03;;;;;;;10.18;7.97;;;11.40;99.90;;;;;;7371329;19;20038;-66
2024/01/29 10:09:29;;;;;;;8.48;7.57;;;11.50;99.90;;;;;;7368378;19;20018;-66
2024/01/29 10:11:56;;;;;;;10.02;8.30;;;11.50;99.90;;;;;;7370838;19;20010;-64
2024/01/29 10:14:23;;;;;;;13.35;7.55;;;11.40;99.90;;;;;;7371570;19;20022;-64
2024/01/29 10:16:50;;;;;;;8.48;7.40;;;11.40;99.90;;;;;;7372633;19;20914;-64
2024/01/29 10:19:19;;;;;;;9.07;7.65;;;11.50;99.90;;;;;;7370196;19;20011;-65
2024/01/29 10:21:46;;;;;;;12.13;7.97;;;11.50;99.90;;;;;;7372127;19;20030;-64
2024/01/29 10:24:14;;;;;;;9.32;8.02;;;11.60;99.90;;;;;;7371350;19;20023;-65
2024/01/29 10:26:45;;;;;;;9.43;7.72;;;11.40;99.90;;;;;;7377154;19;20023;-65
2024/01/29 10:29:12;;;;;;;9.85;8.10;;;11.40;99.90;;;;;;7374267;19;20010;-64
2024/01/29 10:31:40;;;;;;;9.85;8.60;;;11.10;99.90;;;;;;7378792;19;20025;-65
2024/01/29 10:34:06;;;;;;;9.57;8.23;;;11.10;99.90;;;;;;7378375;19;20015;-65
2024/01/29 10:36:34;;;;;;;10.48;8.57;;;11.50;99.90;;;;;;7380955;19;20018;-64
2024/01/29 10:39:02;;;;;;;11.90;9.15;;;11.90;99.90;;;;;;7377879;19;20031;-64
2024/01/29 10:41:32;;;;;;;11.60;8.30;;;12.50;99.90;;;;;;7380885;19;20014;-65
2024/01/29 10:44:03;;;;;;;9.75;8.77;;;13.10;99.90;;;;;;7377692;19;20022;-65
2024/01/29 10:46:36;;;;;;;9.35;7.72;;;13.40;99.90;;;;;;7380745;19;21099;-65
2024/01/29 10:49:03;;;;;;;10.07;8.38;;;13.40;99.90;;;;;;7373911;19;20060;-65
2024/01/29 10:51:34;;;;;;;10.35;8.48;;;13.40;99.90;;;;;;7378507;19;21021;-65
2024/01/29 10:54:02;;;;;;;9.15;8.32;;;13.30;99.90;;;;;;7378845;19;20022;-65
2024/01/29 10:56:30;;;;;;;11.13;8.65;;;13.30;99.90;;;;;;7375679;19;20016;-65
2024/01/29 10:58:59;;;;;;;10.27;8.50;;;13.70;99.90;;;;;;7375149;19;20092;-64
2024/01/29 11:01:28;;;;;;;9.90;8.40;;;13.80;99.90;;;;;;7378269;19;20367;-65
2024/01/29 11:03:58;;;;;;;9.65;8.65;;;13.40;99.90;;;;;;7378530;19;20021;-65
2024/01/29 11:06:50;;;;;;;9.77;8.07;;;13.40;99.90;;;;;;7376639;19;20054;-65
2024/01/29 11:09:24;;;;;;;9.75;8.75;;;13.50;99.90;;;;;;7369397;19;20018;-65
2024/01/29 11:11:52;;;;;;;10.50;9.13;;;13.80;99.90;;;;;;7379112;19;20022;-65
2024/01/29 11:14:19;;;;;;;14.02;9.48;;;14.00;99.90;;;;;;7373622;19;20046;-65
2024/01/29 11:16:47;;;;;;;14.20;8.93;;;14.10;99.90;;;;;;7378720;19;20082;-65
2024/01/29 11:19:16;;;;;;;11.60;9.77;;;14.20;99.90;;;;;;7375207;19;20018;-65
2024/01/29 11:21:52;;;;;;;9.75;8.75;;;13.70;99.90;;;;;;7376122;19;20023;-65
2024/01/29 11:24:22;;;;;;;9.93;8.77;;;13.70;99.90;;;;;;7375697;19;20035;-65
2024/01/29 11:26:48;;;;;;;10.50;9.15;;;13.90;99.90;;;;;;7373001;19;20353;-65
2024/01/29 11:29:19;;;;;;;10.50;9.20;;;13.60;99.90;;;;;;7374719;19;20513;-65
2024/01/29 11:31:53;;;;;;;10.85;9.57;;;13.90;99.90;;;;;;7377638;19;21198;-65
2024/01/29 11:34:27;;;;;;;36.10;29.38;;;14.20;99.90;;;;;;7375117;19;20018;-59
2024/01/29 11:36:54;;;;;;;30.42;24.58;;;14.50;99.90;;;;;;7374336;19;20772;-58
2024/01/29 11:39:24;;;;;;;23.10;20.52;;;14.90;99.90;;;;;;7373408;19;20428;-57
2024/01/29 11:41:52;;;;;;;16.10;13.55;;;14.80;99.90;;;;;;7375038;19;20804;-58
2024/01/29 11:44:18;;;;;;;19.33;16.70;;;15.10;99.90;;;;;;7378138;19;20014;-64
2024/01/29 11:46:45;;;;;;;18.55;13.15;;;15.00;99.90;;;;;;7376891;19;20018;-63
2024/01/29 11:49:12;;;;;;;16.38;12.90;;;14.10;99.90;;;;;;7372782;19;20685;-63
2024/01/29 11:51:38;;;;;;;13.95;12.35;;;13.20;99.90;;;;;;7372685;19;20136;-68
2024/01/29 11:54:04;;;;;;;17.35;15.15;;;12.30;99.90;;;;;;7377405;19;20022;-63
2024/01/29 11:56:30;;;;;;;17.20;14.25;;;11.80;99.90;;;;;;7376582;19;20029;-64
2024/01/29 11:59:03;;;;;;;17.92;14.40;;;11.60;99.90;;;;;;7375102;19;20010;-63
2024/01/29 12:01:33;;;;;;;13.55;11.90;;;11.20;99.90;;;;;;7374825;19;20818;-67
2024/01/29 12:04:00;;;;;;;14.07;11.45;;;11.00;99.90;;;;;;7375785;19;20046;-64
2024/01/29 12:06:28;;;;;;;14.43;12.07;;;10.80;99.90;;;;;;7376411;19;20011;-64
2024/01/29 12:08:57;;;;;;;15.93;11.40;;;10.70;99.90;;;;;;7374904;19;20026;-66
2024/01/29 12:11:25;;;;;;;15.73;11.40;;;10.50;99.90;;;;;;7376068;19;20884;-64
2024/01/29 12:13:55;;;;;;;16.98;12.05;;;10.40;99.90;;;;;;7374236;19;20459;-65
2024/01/29 12:16:23;;;;;;;17.05;12.00;;;10.20;99.90;;;;;;7378423;19;20022;-66
2024/01/29 12:18:50;;;;;;;14.77;12.25;;;10.10;99.90;;;;;;7377527;19;22092;-66
2024/01/29 12:21:20;;;;;;;14.70;12.20;;;10.10;99.90;;;;;;7373420;19;20019;-66
2024/01/29 12:23:47;;;;;;;15.63;11.32;;;10.10;99.90;;;;;;7372111;19;20022;-67
2024/01/29 12:26:25;;;;;;;14.80;11.90;;;10.10;99.90;;;;;;7377277;19;20361;-65
2024/01/29 12:28:52;;;;;;;16.45;11.73;;;10.00;99.90;;;;;;7376856;19;20558;-66
2024/01/29 12:31:21;;;;;;;15.95;11.85;;;10.10;99.90;;;;;;7372275;19;20010;-66
2024/01/29 12:33:48;;;;;;;14.27;12.05;;;10.00;99.90;;;;;;7378823;19;20026;-66
2024/01/29 12:36:16;;;;;;;14.25;11.98;;;10.00;99.90;;;;;;7375143;19;20983;-66
2024/01/29 12:38:54;;;;;;;17.92;13.30;;;9.90;99.90;;;;;;7378521;19;20123;-66
2024/01/29 12:41:21;;;;;;;28.48;22.92;;;9.90;99.90;;;;;;7371807;19;20019;-66
2024/01/29 12:43:51;;;;;;;15.43;13.40;;;9.80;99.90;;;;;;7376020;19;20022;-66
2024/01/29 12:46:19;;;;;;;19.10;13.80;;;9.80;99.90;;;;;;7371940;19;20028;-66
2024/01/29 12:48:46;;;;;;;15.70;13.02;;;9.80;99.90;;;;;;7375085;19;20021;-65
2024/01/29 12:51:14;;;;;;;16.40;12.98;;;9.80;99.90;;;;;;7372653;19;20018;-66